Tallaght, Ireland

12:13 PM IST on September 01, 2015 (GMT +0100)
Templeogue, Dublin | | Change Station
CLOSE
Current Station
Personal Weather Station
Location: Dublin, DUBLIN
Elevation: 174 ft
Nearby Weather Stations

Elev 174 ft 53.31 °N, 6.32 °W | Updated 51 seconds ago

Mostly Cloudy
Mostly Cloudy
60.8 °F
Feels Like 60.8 °F
N
4.0
Wind Variable Wind from NW
Gusts 9.0 mph

Today
High -- | Low -- °F
--% Chance of Precip.
Yesterday
High -- | Low -- °F
Precip. -- in
6:34 AM 8:15 PM
Waning Gibbous, 89% visible
Pressure 30.18 in
Visibility 6.2 miles
Clouds Few 1600 ft
Mostly Cloudy 3000 ft
Dew Point 46 °F
Humidity 58%
Rainfall 0.00 in
Snow Depth Not available.
UV 3 out of 12
Pollen Not available.
Air Quality Not available.
Flu Activity Not available.
METAR EIME 011100Z 33007KT 9999 FEW016 BKN030 15/08 Q1022
Pressure 30.18 in
Visibility 6.2 miles
Clouds Few 1600 ft
Mostly Cloudy 3000 ft
Dew Point 46 °F
Humidity 58%
Rainfall 0.00 in
Snow Depth Not available.
UV 3 out of 12
Pollen Not available.
Air Quality Not available.
Flu Activity Not available.
METAR EIME 011100Z 33007KT 9999 FEW016 BKN030 15/08 Q1022

10-Day Weather Forecast

×

Almanac

Astronomy

Sep. 01, 2015 Rise Set
Actual Time
Civil Twilight
Nautical Twilight
Astronomical Twilight
Moon
Length of Visible Light
Length of Day
Tomorrow will be .
, % of the Moon is Illuminated

Today's Extremes

Country Highs Country Lows

Community

WunderPhotos

Upload Photos

1,851,501 photos uploaded!

WunderBlogs® & News

Nearby

Air Quality

  Air Quality AQ Index Pollutant
Not available.

Snow Depth

Station Depth Elevation

Earthquake Activity

City Distance Mag. Time & Date
Minimum magnitude displayed is 2.5.

Coastal Water Temperatures

Place Temperature

Stations

Nearby Weather Stations

Station Location Temp. Windchill Dew Point Humidity Wind Precip. Elev Updated Type